Terminal Aerodrome Forecast
Issued by NWS

Home | Current Version | Previous Version | Text Only | Print | Product List | Glossary On
Versions: 1 2 3 4 5 6 7 8 9 10 11 12 13 14 15 16 17 18 19 20 21 22 23 24 25 26 27 28 29 30 31 32 33 34 35 36 37 38 39
000
FTUS41 KALY 010603 CCB
TAFPSF
TAF COR
KPSF 010603Z 0106/0206 14011G14KT P6SM OVC020
     FM011100 17009KT P6SM OVC020 PROB30 0121/0202 4SM -TSRA
      OVC007CB
     FM020200 18012G26KT P6SM OVC015 PROB30 0202/0203 4SM -TSRA
      OVC007CB
     FM020300 18013G27KT 6SM -SHRA VCTS OVC008CB
     FM020500 20012G26KT 6SM -SHRA VCTS OVC015CB WS020/21040KT=

USA.gov is the U.S. government's official web portal to all federal, state and local government web resources and services.